sensor_id;sensor_type;location;lat;lon;timestamp;P1;durP1;ratioP1;P2;durP2;ratioP2
70780;SDS011;59514;48.810;2.134;2022-07-10T00:00:11;2.63;;;1.02;;
70780;SDS011;59514;48.810;2.134;2022-07-10T00:02:41;3.63;;;1.10;;
70780;SDS011;59514;48.810;2.134;2022-07-10T00:05:07;2.25;;;1.00;;
70780;SDS011;59514;48.810;2.134;2022-07-10T00:07:34;2.28;;;1.02;;
70780;SDS011;59514;48.810;2.134;2022-07-10T00:09:59;4.40;;;1.15;;
70780;SDS011;59514;48.810;2.134;2022-07-10T00:12:25;3.00;;;1.15;;
70780;SDS011;59514;48.810;2.134;2022-07-10T00:14:51;4.68;;;1.38;;
70780;SDS011;59514;48.810;2.134;2022-07-10T00:17:17;2.50;;;1.20;;
70780;SDS011;59514;48.810;2.134;2022-07-10T00:19:42;3.72;;;1.40;;
70780;SDS011;59514;48.810;2.134;2022-07-10T00:22:08;3.67;;;1.38;;
70780;SDS011;59514;48.810;2.134;2022-07-10T00:24:33;2.05;;;1.15;;
70780;SDS011;59514;48.810;2.134;2022-07-10T00:26:59;1.17;;;1.00;;
70780;SDS011;59514;48.810;2.134;2022-07-10T00:29:24;3.78;;;1.25;;
70780;SDS011;59514;48.810;2.134;2022-07-10T00:31:49;4.15;;;1.30;;
70780;SDS011;59514;48.810;2.134;2022-07-10T00:34:15;3.58;;;1.25;;
70780;SDS011;59514;48.810;2.134;2022-07-10T00:36:40;4.07;;;1.50;;
70780;SDS011;59514;48.810;2.134;2022-07-10T00:39:05;4.75;;;1.00;;
70780;SDS011;59514;48.810;2.134;2022-07-10T00:41:31;2.15;;;1.20;;
70780;SDS011;59514;48.810;2.134;2022-07-10T00:44:00;3.78;;;1.10;;
70780;SDS011;59514;48.810;2.134;2022-07-10T00:46:26;4.30;;;1.38;;
70780;SDS011;59514;48.810;2.134;2022-07-10T00:48:53;2.83;;;1.40;;
70780;SDS011;59514;48.810;2.134;2022-07-10T00:51:21;3.40;;;1.30;;
70780;SDS011;59514;48.810;2.134;2022-07-10T00:53:49;2.40;;;1.30;;
70780;SDS011;59514;48.810;2.134;2022-07-10T00:56:19;3.53;;;1.50;;
70780;SDS011;59514;48.810;2.134;2022-07-10T00:58:47;3.50;;;1.50;;
70780;SDS011;59514;48.810;2.134;2022-07-10T01:01:14;1.83;;;1.27;;
70780;SDS011;59514;48.810;2.134;2022-07-10T01:03:40;4.95;;;1.42;;
70780;SDS011;59514;48.810;2.134;2022-07-10T01:06:05;3.67;;;1.45;;
70780;SDS011;59514;48.810;2.134;2022-07-10T01:08:31;4.50;;;1.30;;
70780;SDS011;59514;48.810;2.134;2022-07-10T01:10:57;3.95;;;1.60;;
70780;SDS011;59514;48.810;2.134;2022-07-10T01:13:23;2.17;;;1.15;;
70780;SDS011;59514;48.810;2.134;2022-07-10T01:15:49;2.28;;;1.20;;
70780;SDS011;59514;48.810;2.134;2022-07-10T01:18:15;4.93;;;1.48;;
70780;SDS011;59514;48.810;2.134;2022-07-10T01:20:40;4.82;;;1.27;;
70780;SDS011;59514;48.810;2.134;2022-07-10T01:23:06;3.10;;;1.45;;
70780;SDS011;59514;48.810;2.134;2022-07-10T01:25:31;2.45;;;1.63;;
70780;SDS011;59514;48.810;2.134;2022-07-10T01:27:57;3.40;;;1.60;;
70780;SDS011;59514;48.810;2.134;2022-07-10T01:30:23;4.00;;;1.45;;
70780;SDS011;59514;48.810;2.134;2022-07-10T01:32:49;4.40;;;1.52;;
70780;SDS011;59514;48.810;2.134;2022-07-10T01:35:15;4.47;;;1.83;;
70780;SDS011;59514;48.810;2.134;2022-07-10T01:37:40;2.30;;;1.38;;
70780;SDS011;59514;48.810;2.134;2022-07-10T01:40:06;4.63;;;1.52;;
70780;SDS011;59514;48.810;2.134;2022-07-10T01:42:33;5.07;;;1.45;;
70780;SDS011;59514;48.810;2.134;2022-07-10T01:44:58;3.28;;;1.38;;
70780;SDS011;59514;48.810;2.134;2022-07-10T01:47:24;3.85;;;1.50;;
70780;SDS011;59514;48.810;2.134;2022-07-10T01:49:51;6.63;;;1.70;;
70780;SDS011;59514;48.810;2.134;2022-07-10T01:52:17;3.35;;;1.50;;
70780;SDS011;59514;48.810;2.134;2022-07-10T01:54:43;2.25;;;1.48;;
70780;SDS011;59514;48.810;2.134;2022-07-10T01:57:08;2.90;;;1.55;;
70780;SDS011;59514;48.810;2.134;2022-07-10T01:59:34;3.40;;;1.30;;
70780;SDS011;59514;48.810;2.134;2022-07-10T02:01:59;3.55;;;1.48;;
70780;SDS011;59514;48.810;2.134;2022-07-10T02:04:25;4.68;;;1.63;;
70780;SDS011;59514;48.810;2.134;2022-07-10T02:07:09;4.15;;;1.60;;
70780;SDS011;59514;48.810;2.134;2022-07-10T02:09:35;3.33;;;1.38;;
70780;SDS011;59514;48.810;2.134;2022-07-10T02:12:00;4.80;;;1.80;;
70780;SDS011;59514;48.810;2.134;2022-07-10T02:14:26;4.97;;;1.50;;
70780;SDS011;59514;48.810;2.134;2022-07-10T02:16:51;4.72;;;1.95;;
70780;SDS011;59514;48.810;2.134;2022-07-10T02:19:17;4.47;;;1.60;;
70780;SDS011;59514;48.810;2.134;2022-07-10T02:21:42;2.45;;;1.38;;
70780;SDS011;59514;48.810;2.134;2022-07-10T02:24:08;4.68;;;1.70;;
70780;SDS011;59514;48.810;2.134;2022-07-10T02:26:34;1.83;;;1.35;;
70780;SDS011;59514;48.810;2.134;2022-07-10T02:28:59;2.92;;;1.83;;
70780;SDS011;59514;48.810;2.134;2022-07-10T02:31:24;5.75;;;1.45;;
70780;SDS011;59514;48.810;2.134;2022-07-10T02:33:49;4.25;;;1.70;;
70780;SDS011;59514;48.810;2.134;2022-07-10T02:36:15;4.05;;;1.50;;
70780;SDS011;59514;48.810;2.134;2022-07-10T02:38:40;2.88;;;1.65;;
70780;SDS011;59514;48.810;2.134;2022-07-10T02:41:05;2.08;;;1.25;;
70780;SDS011;59514;48.810;2.134;2022-07-10T02:43:31;4.25;;;1.80;;
70780;SDS011;59514;48.810;2.134;2022-07-10T02:45:56;2.90;;;1.50;;
70780;SDS011;59514;48.810;2.134;2022-07-10T02:48:22;3.03;;;1.52;;
70780;SDS011;59514;48.810;2.134;2022-07-10T02:50:47;3.67;;;1.30;;
70780;SDS011;59514;48.810;2.134;2022-07-10T02:53:12;4.95;;;1.70;;
70780;SDS011;59514;48.810;2.134;2022-07-10T02:55:38;4.07;;;1.50;;
70780;SDS011;59514;48.810;2.134;2022-07-10T02:58:03;4.57;;;1.90;;
70780;SDS011;59514;48.810;2.134;2022-07-10T03:00:29;5.30;;;1.58;;
70780;SDS011;59514;48.810;2.134;2022-07-10T03:02:54;3.17;;;1.60;;
70780;SDS011;59514;48.810;2.134;2022-07-10T03:05:20;5.40;;;1.83;;
70780;SDS011;59514;48.810;2.134;2022-07-10T03:07:46;4.60;;;1.63;;
70780;SDS011;59514;48.810;2.134;2022-07-10T03:10:12;2.72;;;1.70;;
70780;SDS011;59514;48.810;2.134;2022-07-10T03:12:37;3.63;;;1.42;;
70780;SDS011;59514;48.810;2.134;2022-07-10T03:15:06;2.47;;;1.38;;
70780;SDS011;59514;48.810;2.134;2022-07-10T03:17:32;3.38;;;1.70;;
70780;SDS011;59514;48.810;2.134;2022-07-10T03:19:57;3.45;;;1.38;;
70780;SDS011;59514;48.810;2.134;2022-07-10T03:22:22;3.58;;;1.60;;
70780;SDS011;59514;48.810;2.134;2022-07-10T03:24:48;4.30;;;1.60;;
70780;SDS011;59514;48.810;2.134;2022-07-10T03:27:14;3.58;;;1.50;;
70780;SDS011;59514;48.810;2.134;2022-07-10T03:29:39;3.75;;;1.40;;
70780;SDS011;59514;48.810;2.134;2022-07-10T03:32:05;3.80;;;1.40;;
70780;SDS011;59514;48.810;2.134;2022-07-10T03:34:31;4.20;;;1.75;;
70780;SDS011;59514;48.810;2.134;2022-07-10T03:36:58;2.88;;;1.33;;
70780;SDS011;59514;48.810;2.134;2022-07-10T03:39:26;2.42;;;1.60;;
70780;SDS011;59514;48.810;2.134;2022-07-10T03:41:52;2.38;;;1.60;;
70780;SDS011;59514;48.810;2.134;2022-07-10T03:44:17;5.55;;;1.80;;
70780;SDS011;59514;48.810;2.134;2022-07-10T03:46:42;4.00;;;1.63;;
70780;SDS011;59514;48.810;2.134;2022-07-10T03:49:08;2.55;;;1.40;;
70780;SDS011;59514;48.810;2.134;2022-07-10T03:51:33;5.28;;;1.60;;
70780;SDS011;59514;48.810;2.134;2022-07-10T03:53:58;5.13;;;1.50;;
70780;SDS011;59514;48.810;2.134;2022-07-10T03:56:24;2.20;;;1.70;;
70780;SDS011;59514;48.810;2.134;2022-07-10T03:59:07;4.60;;;1.65;;
70780;SDS011;59514;48.810;2.134;2022-07-10T04:01:33;3.00;;;1.55;;
70780;SDS011;59514;48.810;2.134;2022-07-10T04:03:58;3.63;;;1.80;;
70780;SDS011;59514;48.810;2.134;2022-07-10T04:06:23;4.80;;;1.83;;
70780;SDS011;59514;48.810;2.134;2022-07-10T04:08:49;3.38;;;2.05;;
70780;SDS011;59514;48.810;2.134;2022-07-10T04:11:14;4.43;;;1.60;;
70780;SDS011;59514;48.810;2.134;2022-07-10T04:13:39;3.97;;;1.90;;
70780;SDS011;59514;48.810;2.134;2022-07-10T04:16:05;2.90;;;1.83;;
70780;SDS011;59514;48.810;2.134;2022-07-10T04:18:31;5.20;;;1.63;;
70780;SDS011;59514;48.810;2.134;2022-07-10T04:20:56;6.35;;;2.30;;
70780;SDS011;59514;48.810;2.134;2022-07-10T04:23:21;5.15;;;1.77;;
70780;SDS011;59514;48.810;2.134;2022-07-10T04:25:46;3.85;;;1.85;;
70780;SDS011;59514;48.810;2.134;2022-07-10T04:28:12;4.68;;;2.05;;
70780;SDS011;59514;48.810;2.134;2022-07-10T04:30:37;4.78;;;1.92;;
70780;SDS011;59514;48.810;2.134;2022-07-10T04:33:02;3.50;;;1.90;;
70780;SDS011;59514;48.810;2.134;2022-07-10T04:35:28;3.67;;;1.60;;
70780;SDS011;59514;48.810;2.134;2022-07-10T04:37:53;3.40;;;1.90;;
70780;SDS011;59514;48.810;2.134;2022-07-10T04:40:19;2.25;;;1.67;;
70780;SDS011;59514;48.810;2.134;2022-07-10T04:42:44;3.45;;;1.80;;
70780;SDS011;59514;48.810;2.134;2022-07-10T04:45:09;4.53;;;1.50;;
70780;SDS011;59514;48.810;2.134;2022-07-10T04:47:35;4.93;;;1.58;;
70780;SDS011;59514;48.810;2.134;2022-07-10T04:50:00;4.22;;;1.77;;
70780;SDS011;59514;48.810;2.134;2022-07-10T04:52:26;4.90;;;2.00;;
70780;SDS011;59514;48.810;2.134;2022-07-10T04:54:51;7.47;;;2.25;;
70780;SDS011;59514;48.810;2.134;2022-07-10T04:57:16;6.72;;;2.25;;
70780;SDS011;59514;48.810;2.134;2022-07-10T04:59:42;4.70;;;2.20;;
70780;SDS011;59514;48.810;2.134;2022-07-10T05:02:07;4.72;;;2.10;;
70780;SDS011;59514;48.810;2.134;2022-07-10T05:04:33;5.72;;;2.05;;
70780;SDS011;59514;48.810;2.134;2022-07-10T05:06:58;5.50;;;2.00;;
70780;SDS011;59514;48.810;2.134;2022-07-10T05:09:24;5.47;;;2.15;;
70780;SDS011;59514;48.810;2.134;2022-07-10T05:11:49;4.90;;;2.13;;
70780;SDS011;59514;48.810;2.134;2022-07-10T05:14:14;3.85;;;2.13;;
70780;SDS011;59514;48.810;2.134;2022-07-10T05:16:41;4.47;;;2.30;;
70780;SDS011;59514;48.810;2.134;2022-07-10T05:19:06;4.75;;;1.95;;
70780;SDS011;59514;48.810;2.134;2022-07-10T05:21:32;2.75;;;1.70;;
70780;SDS011;59514;48.810;2.134;2022-07-10T05:23:57;4.78;;;1.88;;
70780;SDS011;59514;48.810;2.134;2022-07-10T05:26:22;4.40;;;1.65;;
70780;SDS011;59514;48.810;2.134;2022-07-10T05:28:48;4.57;;;2.00;;
70780;SDS011;59514;48.810;2.134;2022-07-10T05:31:13;2.80;;;1.75;;
70780;SDS011;59514;48.810;2.134;2022-07-10T05:33:38;3.83;;;2.10;;
70780;SDS011;59514;48.810;2.134;2022-07-10T05:36:05;4.60;;;2.28;;
70780;SDS011;59514;48.810;2.134;2022-07-10T05:38:31;2.95;;;1.85;;
70780;SDS011;59514;48.810;2.134;2022-07-10T05:40:57;2.90;;;1.88;;
70780;SDS011;59514;48.810;2.134;2022-07-10T05:43:22;5.07;;;2.45;;
70780;SDS011;59514;48.810;2.134;2022-07-10T05:45:47;4.70;;;2.13;;
70780;SDS011;59514;48.810;2.134;2022-07-10T05:48:13;4.70;;;1.70;;
70780;SDS011;59514;48.810;2.134;2022-07-10T05:50:38;3.25;;;2.03;;
70780;SDS011;59514;48.810;2.134;2022-07-10T05:53:04;6.50;;;2.17;;
70780;SDS011;59514;48.810;2.134;2022-07-10T05:55:29;5.93;;;2.20;;
70780;SDS011;59514;48.810;2.134;2022-07-10T05:57:54;4.00;;;2.08;;
70780;SDS011;59514;48.810;2.134;2022-07-10T06:00:20;5.15;;;2.28;;
70780;SDS011;59514;48.810;2.134;2022-07-10T06:02:45;5.65;;;2.28;;
70780;SDS011;59514;48.810;2.134;2022-07-10T06:05:11;4.30;;;2.03;;
70780;SDS011;59514;48.810;2.134;2022-07-10T06:07:36;3.88;;;1.90;;
70780;SDS011;59514;48.810;2.134;2022-07-10T06:10:02;5.00;;;1.73;;
70780;SDS011;59514;48.810;2.134;2022-07-10T06:12:29;3.30;;;2.00;;
70780;SDS011;59514;48.810;2.134;2022-07-10T06:14:55;5.10;;;2.10;;
70780;SDS011;59514;48.810;2.134;2022-07-10T06:17:20;4.85;;;2.30;;
70780;SDS011;59514;48.810;2.134;2022-07-10T06:19:46;3.22;;;1.90;;
70780;SDS011;59514;48.810;2.134;2022-07-10T06:22:11;4.57;;;2.10;;
70780;SDS011;59514;48.810;2.134;2022-07-10T06:24:55;4.43;;;1.98;;
70780;SDS011;59514;48.810;2.134;2022-07-10T06:27:21;5.72;;;2.00;;
70780;SDS011;59514;48.810;2.134;2022-07-10T06:29:46;4.53;;;2.20;;
70780;SDS011;59514;48.810;2.134;2022-07-10T06:32:12;4.53;;;2.53;;
70780;SDS011;59514;48.810;2.134;2022-07-10T06:34:37;3.83;;;2.05;;
70780;SDS011;59514;48.810;2.134;2022-07-10T06:37:03;4.85;;;2.25;;
70780;SDS011;59514;48.810;2.134;2022-07-10T06:39:28;6.72;;;2.30;;
70780;SDS011;59514;48.810;2.134;2022-07-10T06:41:58;3.35;;;1.83;;
70780;SDS011;59514;48.810;2.134;2022-07-10T06:44:25;3.33;;;1.70;;
70780;SDS011;59514;48.810;2.134;2022-07-10T06:46:50;5.28;;;1.85;;
70780;SDS011;59514;48.810;2.134;2022-07-10T06:49:35;3.40;;;2.00;;
70780;SDS011;59514;48.810;2.134;2022-07-10T06:52:00;4.60;;;1.70;;
70780;SDS011;59514;48.810;2.134;2022-07-10T06:54:26;4.78;;;2.00;;
70780;SDS011;59514;48.810;2.134;2022-07-10T06:56:52;6.00;;;2.10;;
70780;SDS011;59514;48.810;2.134;2022-07-10T06:59:17;5.75;;;1.73;;
70780;SDS011;59514;48.810;2.134;2022-07-10T07:01:42;4.22;;;1.88;;
70780;SDS011;59514;48.810;2.134;2022-07-10T07:04:08;2.38;;;1.65;;
70780;SDS011;59514;48.810;2.134;2022-07-10T07:06:33;5.78;;;2.00;;
70780;SDS011;59514;48.810;2.134;2022-07-10T07:08:58;2.70;;;1.55;;
70780;SDS011;59514;48.810;2.134;2022-07-10T07:11:24;4.68;;;2.33;;
70780;SDS011;59514;48.810;2.134;2022-07-10T07:13:49;5.53;;;2.00;;
70780;SDS011;59514;48.810;2.134;2022-07-10T07:16:14;2.40;;;1.58;;
70780;SDS011;59514;48.810;2.134;2022-07-10T07:18:43;3.38;;;2.00;;
70780;SDS011;59514;48.810;2.134;2022-07-10T07:21:14;3.03;;;1.40;;
70780;SDS011;59514;48.810;2.134;2022-07-10T07:23:58;4.70;;;1.60;;
70780;SDS011;59514;48.810;2.134;2022-07-10T07:26:23;5.20;;;1.70;;
70780;SDS011;59514;48.810;2.134;2022-07-10T07:28:49;3.17;;;1.55;;
70780;SDS011;59514;48.810;2.134;2022-07-10T07:31:14;3.75;;;1.83;;
70780;SDS011;59514;48.810;2.134;2022-07-10T07:33:42;7.60;;;1.77;;
70780;SDS011;59514;48.810;2.134;2022-07-10T07:36:08;3.88;;;1.40;;
70780;SDS011;59514;48.810;2.134;2022-07-10T07:38:33;3.55;;;1.60;;
70780;SDS011;59514;48.810;2.134;2022-07-10T07:40:58;2.70;;;1.48;;
70780;SDS011;59514;48.810;2.134;2022-07-10T07:43:24;3.88;;;1.83;;
70780;SDS011;59514;48.810;2.134;2022-07-10T07:45:49;3.10;;;1.38;;
70780;SDS011;59514;48.810;2.134;2022-07-10T07:48:15;2.40;;;1.50;;
70780;SDS011;59514;48.810;2.134;2022-07-10T07:50:40;5.55;;;1.63;;
70780;SDS011;59514;48.810;2.134;2022-07-10T07:53:05;2.80;;;1.48;;
70780;SDS011;59514;48.810;2.134;2022-07-10T07:55:32;3.13;;;1.45;;
70780;SDS011;59514;48.810;2.134;2022-07-10T07:57:58;4.80;;;1.35;;
70780;SDS011;59514;48.810;2.134;2022-07-10T08:00:24;2.40;;;1.30;;
70780;SDS011;59514;48.810;2.134;2022-07-10T08:02:51;2.15;;;1.30;;
70780;SDS011;59514;48.810;2.134;2022-07-10T08:05:18;3.00;;;1.42;;
70780;SDS011;59514;48.810;2.134;2022-07-10T08:07:45;3.45;;;1.30;;
70780;SDS011;59514;48.810;2.134;2022-07-10T08:10:12;3.13;;;1.33;;
70780;SDS011;59514;48.810;2.134;2022-07-10T08:12:40;2.65;;;1.15;;
70780;SDS011;59514;48.810;2.134;2022-07-10T08:15:07;5.30;;;1.55;;
70780;SDS011;59514;48.810;2.134;2022-07-10T08:17:33;3.05;;;1.20;;
70780;SDS011;59514;48.810;2.134;2022-07-10T08:19:59;7.07;;;1.60;;
70780;SDS011;59514;48.810;2.134;2022-07-10T08:22:24;2.72;;;1.20;;
70780;SDS011;59514;48.810;2.134;2022-07-10T08:24:49;3.60;;;1.17;;
70780;SDS011;59514;48.810;2.134;2022-07-10T08:27:15;2.45;;;1.10;;
70780;SDS011;59514;48.810;2.134;2022-07-10T08:29:41;4.30;;;1.70;;
70780;SDS011;59514;48.810;2.134;2022-07-10T08:32:06;3.30;;;1.48;;
70780;SDS011;59514;48.810;2.134;2022-07-10T08:34:32;3.53;;;1.50;;
70780;SDS011;59514;48.810;2.134;2022-07-10T08:36:58;3.75;;;1.23;;
70780;SDS011;59514;48.810;2.134;2022-07-10T08:39:23;2.60;;;1.50;;
70780;SDS011;59514;48.810;2.134;2022-07-10T08:41:49;2.90;;;1.33;;
70780;SDS011;59514;48.810;2.134;2022-07-10T08:44:15;2.03;;;1.10;;
70780;SDS011;59514;48.810;2.134;2022-07-10T08:46:42;2.97;;;1.20;;
70780;SDS011;59514;48.810;2.134;2022-07-10T08:49:08;4.88;;;1.70;;
70780;SDS011;59514;48.810;2.134;2022-07-10T08:51:36;1.52;;;1.17;;
70780;SDS011;59514;48.810;2.134;2022-07-10T08:54:06;1.95;;;1.35;;
70780;SDS011;59514;48.810;2.134;2022-07-10T08:56:38;2.40;;;1.38;;
70780;SDS011;59514;48.810;2.134;2022-07-10T08:59:03;2.22;;;1.00;;
70780;SDS011;59514;48.810;2.134;2022-07-10T09:01:30;2.85;;;1.35;;
70780;SDS011;59514;48.810;2.134;2022-07-10T09:03:55;2.03;;;1.20;;
70780;SDS011;59514;48.810;2.134;2022-07-10T09:06:20;2.70;;;1.40;;
70780;SDS011;59514;48.810;2.134;2022-07-10T09:09:05;3.00;;;1.48;;
70780;SDS011;59514;48.810;2.134;2022-07-10T09:11:32;2.05;;;1.23;;
70780;SDS011;59514;48.810;2.134;2022-07-10T09:14:02;6.53;;;1.75;;
70780;SDS011;59514;48.810;2.134;2022-07-10T09:16:30;5.00;;;1.20;;
70780;SDS011;59514;48.810;2.134;2022-07-10T09:18:57;2.30;;;1.10;;
70780;SDS011;59514;48.810;2.134;2022-07-10T09:21:43;2.55;;;1.20;;
70780;SDS011;59514;48.810;2.134;2022-07-10T09:24:13;3.42;;;1.15;;
70780;SDS011;59514;48.810;2.134;2022-07-10T09:26:39;2.40;;;1.40;;
70780;SDS011;59514;48.810;2.134;2022-07-10T09:29:09;2.83;;;1.30;;
70780;SDS011;59514;48.810;2.134;2022-07-10T09:34:18;2.15;;;1.30;;
70780;SDS011;59514;48.810;2.134;2022-07-10T09:37:16;1.55;;;1.05;;
70780;SDS011;59514;48.810;2.134;2022-07-10T09:42:38;3.83;;;1.40;;
70780;SDS011;59514;48.810;2.134;2022-07-10T09:47:44;2.15;;;1.08;;
70780;SDS011;59514;48.810;2.134;2022-07-10T09:50:25;1.58;;;1.10;;
70780;SDS011;59514;48.810;2.134;2022-07-10T09:53:05;3.50;;;1.20;;
70780;SDS011;59514;48.810;2.134;2022-07-10T09:55:35;1.73;;;1.20;;
70780;SDS011;59514;48.810;2.134;2022-07-10T09:58:02;2.00;;;1.00;;
70780;SDS011;59514;48.810;2.134;2022-07-10T10:00:30;3.70;;;1.30;;
70780;SDS011;59514;48.810;2.134;2022-07-10T10:03:01;2.03;;;1.15;;
70780;SDS011;59514;48.810;2.134;2022-07-10T10:05:32;2.50;;;1.27;;
70780;SDS011;59514;48.810;2.134;2022-07-10T10:08:00;1.48;;;1.30;;
70780;SDS011;59514;48.810;2.134;2022-07-10T10:10:30;5.10;;;1.58;;
70780;SDS011;59514;48.810;2.134;2022-07-10T10:12:57;1.40;;;1.20;;
70780;SDS011;59514;48.810;2.134;2022-07-10T10:15:27;3.22;;;1.50;;
70780;SDS011;59514;48.810;2.134;2022-07-10T10:17:55;3.08;;;1.45;;
70780;SDS011;59514;48.810;2.134;2022-07-10T10:20:22;2.80;;;1.33;;
70780;SDS011;59514;48.810;2.134;2022-07-10T10:23:10;2.83;;;1.30;;
70780;SDS011;59514;48.810;2.134;2022-07-10T10:25:38;1.90;;;1.20;;
70780;SDS011;59514;48.810;2.134;2022-07-10T10:28:10;2.90;;;1.30;;
70780;SDS011;59514;48.810;2.134;2022-07-10T10:30:39;3.47;;;1.45;;
70780;SDS011;59514;48.810;2.134;2022-07-10T10:35:59;3.10;;;1.43;;
70780;SDS011;59514;48.810;2.134;2022-07-10T10:38:35;2.17;;;1.20;;
70780;SDS011;59514;48.810;2.134;2022-07-10T10:41:26;2.35;;;1.20;;
70780;SDS011;59514;48.810;2.134;2022-07-10T10:46:33;2.15;;;0.88;;
70780;SDS011;59514;48.810;2.134;2022-07-10T10:49:19;3.00;;;1.35;;
70780;SDS011;59514;48.810;2.134;2022-07-10T10:54:28;2.53;;;1.10;;
70780;SDS011;59514;48.810;2.134;2022-07-10T10:57:13;2.30;;;1.10;;
70780;SDS011;59514;48.810;2.134;2022-07-10T11:02:29;1.50;;;1.00;;
70780;SDS011;59514;48.810;2.134;2022-07-10T11:07:54;3.80;;;1.40;;
70780;SDS011;59514;48.810;2.134;2022-07-10T11:10:34;2.47;;;0.90;;
70780;SDS011;59514;48.810;2.134;2022-07-10T11:15:37;3.03;;;1.17;;
70780;SDS011;59514;48.810;2.134;2022-07-10T11:18:19;1.10;;;0.88;;
70780;SDS011;59514;48.810;2.134;2022-07-10T11:20:50;1.65;;;1.30;;
70780;SDS011;59514;48.810;2.134;2022-07-10T11:26:04;2.10;;;1.90;;
70780;SDS011;59514;48.810;2.134;2022-07-10T11:31:03;4.15;;;3.55;;
70780;SDS011;59514;48.810;2.134;2022-07-10T11:33:29;2.75;;;2.15;;
70780;SDS011;59514;48.810;2.134;2022-07-10T11:36:09;3.22;;;2.05;;
70780;SDS011;59514;48.810;2.134;2022-07-10T11:41:03;3.90;;;3.45;;
70780;SDS011;59514;48.810;2.134;2022-07-10T11:43:29;4.53;;;2.80;;
70780;SDS011;59514;48.810;2.134;2022-07-10T11:45:54;3.77;;;3.20;;
70780;SDS011;59514;48.810;2.134;2022-07-10T11:48:24;2.58;;;2.15;;
70780;SDS011;59514;48.810;2.134;2022-07-10T11:50:49;3.60;;;2.10;;
70780;SDS011;59514;48.810;2.134;2022-07-10T11:53:25;2.40;;;1.92;;
70780;SDS011;59514;48.810;2.134;2022-07-10T11:55:51;10.32;;;9.32;;
70780;SDS011;59514;48.810;2.134;2022-07-10T11:58:17;7.75;;;5.90;;
70780;SDS011;59514;48.810;2.134;2022-07-10T12:00:59;4.85;;;4.03;;
70780;SDS011;59514;48.810;2.134;2022-07-10T12:03:31;4.80;;;4.00;;
70780;SDS011;59514;48.810;2.134;2022-07-10T12:06:03;4.18;;;3.65;;
70780;SDS011;59514;48.810;2.134;2022-07-10T12:08:30;4.82;;;3.55;;
70780;SDS011;59514;48.810;2.134;2022-07-10T12:11:10;3.22;;;2.97;;
70780;SDS011;59514;48.810;2.134;2022-07-10T12:13:40;4.65;;;3.67;;
70780;SDS011;59514;48.810;2.134;2022-07-10T12:16:06;3.28;;;2.58;;
70780;SDS011;59514;48.810;2.134;2022-07-10T12:18:32;2.50;;;1.90;;
70780;SDS011;59514;48.810;2.134;2022-07-10T12:20:58;2.53;;;1.60;;
70780;SDS011;59514;48.810;2.134;2022-07-10T12:23:24;1.63;;;1.20;;
70780;SDS011;59514;48.810;2.134;2022-07-10T12:25:50;3.85;;;1.98;;
70780;SDS011;59514;48.810;2.134;2022-07-10T12:28:16;3.17;;;2.53;;
70780;SDS011;59514;48.810;2.134;2022-07-10T12:30:43;3.83;;;1.80;;
70780;SDS011;59514;48.810;2.134;2022-07-10T12:33:15;1.38;;;1.17;;
70780;SDS011;59514;48.810;2.134;2022-07-10T12:35:56;3.35;;;1.60;;
70780;SDS011;59514;48.810;2.134;2022-07-10T12:38:24;2.45;;;1.50;;
70780;SDS011;59514;48.810;2.134;2022-07-10T12:40:50;3.10;;;1.45;;
70780;SDS011;59514;48.810;2.134;2022-07-10T12:43:26;2.55;;;1.23;;
70780;SDS011;59514;48.810;2.134;2022-07-10T12:48:41;1.98;;;1.15;;
70780;SDS011;59514;48.810;2.134;2022-07-10T12:51:27;1.55;;;1.17;;
70780;SDS011;59514;48.810;2.134;2022-07-10T12:53:54;1.77;;;1.23;;
70780;SDS011;59514;48.810;2.134;2022-07-10T12:56:30;3.67;;;1.00;;
70780;SDS011;59514;48.810;2.134;2022-07-10T12:59:00;1.77;;;1.10;;
70780;SDS011;59514;48.810;2.134;2022-07-10T13:01:39;1.17;;;1.08;;
70780;SDS011;59514;48.810;2.134;2022-07-10T13:04:06;1.90;;;1.08;;
70780;SDS011;59514;48.810;2.134;2022-07-10T13:06:33;2.50;;;1.15;;
70780;SDS011;59514;48.810;2.134;2022-07-10T13:09:01;3.05;;;1.02;;
70780;SDS011;59514;48.810;2.134;2022-07-10T13:11:27;2.45;;;1.40;;
70780;SDS011;59514;48.810;2.134;2022-07-10T13:13:53;1.70;;;1.20;;
70780;SDS011;59514;48.810;2.134;2022-07-10T13:16:18;2.33;;;1.00;;
70780;SDS011;59514;48.810;2.134;2022-07-10T13:18:44;2.47;;;1.10;;
70780;SDS011;59514;48.810;2.134;2022-07-10T13:21:10;2.90;;;1.10;;
70780;SDS011;59514;48.810;2.134;2022-07-10T13:23:36;2.25;;;0.73;;
70780;SDS011;59514;48.810;2.134;2022-07-10T13:26:02;3.17;;;0.90;;
70780;SDS011;59514;48.810;2.134;2022-07-10T13:28:43;1.10;;;0.90;;
70780;SDS011;59514;48.810;2.134;2022-07-10T13:31:08;1.33;;;0.83;;
70780;SDS011;59514;48.810;2.134;2022-07-10T13:33:34;1.25;;;0.70;;
70780;SDS011;59514;48.810;2.134;2022-07-10T13:36:00;1.67;;;0.90;;
70780;SDS011;59514;48.810;2.134;2022-07-10T13:38:26;4.20;;;1.13;;
70780;SDS011;59514;48.810;2.134;2022-07-10T13:40:52;2.20;;;0.82;;
70780;SDS011;59514;48.810;2.134;2022-07-10T13:43:17;2.90;;;0.90;;
70780;SDS011;59514;48.810;2.134;2022-07-10T13:45:42;1.95;;;0.90;;
70780;SDS011;59514;48.810;2.134;2022-07-10T13:48:12;1.40;;;0.85;;
70780;SDS011;59514;48.810;2.134;2022-07-10T13:50:39;1.70;;;0.93;;
70780;SDS011;59514;48.810;2.134;2022-07-10T13:53:05;1.33;;;0.80;;
70780;SDS011;59514;48.810;2.134;2022-07-10T13:55:30;1.83;;;0.90;;
70780;SDS011;59514;48.810;2.134;2022-07-10T13:57:58;2.80;;;0.90;;
70780;SDS011;59514;48.810;2.134;2022-07-10T14:00:23;2.88;;;0.77;;
70780;SDS011;59514;48.810;2.134;2022-07-10T14:02:49;0.80;;;0.80;;
70780;SDS011;59514;48.810;2.134;2022-07-10T14:05:14;2.08;;;0.88;;
70780;SDS011;59514;48.810;2.134;2022-07-10T14:07:39;1.57;;;1.03;;
70780;SDS011;59514;48.810;2.134;2022-07-10T14:10:05;0.98;;;0.70;;
70780;SDS011;59514;48.810;2.134;2022-07-10T14:12:31;3.97;;;0.95;;
70780;SDS011;59514;48.810;2.134;2022-07-10T14:14:57;2.05;;;0.80;;
70780;SDS011;59514;48.810;2.134;2022-07-10T14:17:23;1.10;;;0.68;;
70780;SDS011;59514;48.810;2.134;2022-07-10T14:19:49;4.57;;;1.00;;
70780;SDS011;59514;48.810;2.134;2022-07-10T14:22:15;3.22;;;0.80;;
70780;SDS011;59514;48.810;2.134;2022-07-10T14:24:40;2.35;;;0.70;;
70780;SDS011;59514;48.810;2.134;2022-07-10T14:27:06;3.15;;;0.80;;
70780;SDS011;59514;48.810;2.134;2022-07-10T14:29:32;0.68;;;0.50;;
70780;SDS011;59514;48.810;2.134;2022-07-10T14:31:58;1.58;;;0.77;;
70780;SDS011;59514;48.810;2.134;2022-07-10T14:34:23;2.70;;;0.80;;
70780;SDS011;59514;48.810;2.134;2022-07-10T14:36:53;1.65;;;0.60;;
70780;SDS011;59514;48.810;2.134;2022-07-10T14:39:18;1.35;;;0.65;;
70780;SDS011;59514;48.810;2.134;2022-07-10T14:41:44;2.38;;;0.88;;
70780;SDS011;59514;48.810;2.134;2022-07-10T14:44:09;1.88;;;1.10;;
70780;SDS011;59514;48.810;2.134;2022-07-10T14:46:35;1.48;;;0.95;;
70780;SDS011;59514;48.810;2.134;2022-07-10T14:49:00;1.92;;;0.70;;
70780;SDS011;59514;48.810;2.134;2022-07-10T14:51:26;1.55;;;0.90;;
70780;SDS011;59514;48.810;2.134;2022-07-10T14:53:51;3.10;;;0.60;;
70780;SDS011;59514;48.810;2.134;2022-07-10T14:56:17;1.00;;;0.70;;
70780;SDS011;59514;48.810;2.134;2022-07-10T14:58:44;1.85;;;0.70;;
70780;SDS011;59514;48.810;2.134;2022-07-10T15:01:10;2.10;;;0.75;;
70780;SDS011;59514;48.810;2.134;2022-07-10T15:03:36;1.33;;;0.60;;
70780;SDS011;59514;48.810;2.134;2022-07-10T15:06:01;2.55;;;0.90;;
70780;SDS011;59514;48.810;2.134;2022-07-10T15:08:27;1.17;;;0.60;;
70780;SDS011;59514;48.810;2.134;2022-07-10T15:10:52;2.40;;;0.98;;
70780;SDS011;59514;48.810;2.134;2022-07-10T15:13:18;1.73;;;0.60;;
70780;SDS011;59514;48.810;2.134;2022-07-10T15:15:43;1.95;;;0.88;;
70780;SDS011;59514;48.810;2.134;2022-07-10T15:18:09;1.77;;;0.90;;
70780;SDS011;59514;48.810;2.134;2022-07-10T15:20:35;3.25;;;0.82;;
70780;SDS011;59514;48.810;2.134;2022-07-10T15:23:02;3.25;;;0.70;;